Time;durP1;ratioP1;P1;durP2;ratioP2;P2;SDS_P1;SDS_P2;PMS_P1;PMS_P2;Temp;Humidity;BMP_temperature;BMP_pressure;BME280_temperature;BME280_humidity;BME280_pressure;Samples;Min_cycle;Max_cycle;Signal;HPM_P1;HPM_P2
2022/08/04 00:00:35;;;;;;;;;;;;;;;19.94;100.00;100668.31;3054712;19;1199;-51
2022/08/04 00:01:44;;;;;;;;;;;;;;;19.93;100.00;100680.16;3053245;19;1184;-51
2022/08/04 00:02:58;;;;;;;;;;;;;;;19.92;100.00;100678.47;3053864;19;1011;-51
2022/08/04 00:04:01;;;;;;;;;;;;;;;19.90;100.00;100673.22;3054315;19;958;-52
2022/08/04 00:05:07;;;;;;;;;;;;;;;19.90;100.00;100685.91;3052675;19;981;-51
2022/08/04 00:06:11;;;;;;;;;;;;;;;19.89;100.00;100686.91;3052849;19;1022;-52
2022/08/04 00:07:32;;;;;;;;;;;;;;;19.86;100.00;100679.91;3052615;19;1847;-50
2022/08/04 00:08:45;;;;;;;;;;;;;;;19.85;100.00;100671.94;3053365;19;1351;-52
2022/08/04 00:10:01;;;;;;;;;;;;;;;19.85;100.00;100677.34;3052779;19;1140;-52
2022/08/04 00:11:04;;;;;;;;;;;;;;;19.84;100.00;100675.66;3053801;19;1176;-52
2022/08/04 00:12:09;;;;;;;;;;;;;;;19.82;100.00;100683.91;3053046;19;1066;-53
2022/08/04 00:13:11;;;;;;;;;;;;;;;19.80;100.00;100679.69;3047531;19;961;-51
2022/08/04 00:14:16;;;;;;;;;;;;;;;19.82;100.00;100677.66;3043910;19;957;-52
2022/08/04 00:15:18;;;;;;;;;;;;;;;19.80;100.00;100679.69;3044871;19;888;-52
2022/08/04 00:16:23;;;;;;;;;;;;;;;19.78;100.00;100680.69;3046154;19;1329;-51
2022/08/04 00:17:42;;;;;;;;;;;;;;;19.78;100.00;100683.38;3048305;19;1287;-51
2022/08/04 00:18:48;;;;;;;;;;;;;;;19.76;100.00;100688.09;3047519;19;936;-51
2022/08/04 00:19:55;;;;;;;;;;;;;;;19.74;100.00;100689.25;3046881;19;1749;-50
2022/08/04 00:20:58;;;;;;;;;;;;;;;19.74;100.00;100681.13;3052243;19;988;-52
2022/08/04 00:22:05;;;;;;;;;;;;;;;19.73;100.00;100684.81;3053367;19;1372;-53
2022/08/04 00:23:07;;;;;;;;;;;;;;;19.73;100.00;100679.41;3054274;19;1043;-50
2022/08/04 00:24:11;;;;;;;;;;;;;;;19.70;100.00;100677.84;3056563;19;1007;-53
2022/08/04 00:25:14;;;;;;;;;;;;;;;19.69;100.00;100678.84;3055763;19;1030;-51
2022/08/04 00:26:18;;;;;;;;;;;;;;;19.69;100.00;100684.25;3055910;19;984;-51
2022/08/04 00:27:21;;;;;;;;;;;;;;;19.68;100.00;100682.53;3057209;19;1155;-50
2022/08/04 00:28:25;;;;;;;;;;;;;;;19.66;100.00;100681.00;3056230;19;1849;-51
2022/08/04 00:29:27;;;;;;;;;;;;;;;19.66;100.00;100679.16;3056626;19;1491;-53
2022/08/04 00:30:32;;;;;;;;;;;;;;;19.66;100.00;100679.16;3056720;19;914;-51
2022/08/04 00:31:34;;;;;;;;;;;;;;;19.67;100.00;100688.13;3056638;19;953;-51
2022/08/04 00:32:58;;;;;;;;;;;;;;;19.64;100.00;100683.88;3055901;19;1404;-52
2022/08/04 00:34:00;;;;;;;;;;;;;;;19.63;100.00;100678.59;3056675;19;881;-52
2022/08/04 00:35:05;;;;;;;;;;;;;;;19.63;100.00;100673.19;3055550;19;1668;-52
2022/08/04 00:36:07;;;;;;;;;;;;;;;19.60;100.00;100685.16;3049004;19;1031;-52
2022/08/04 00:37:11;;;;;;;;;;;;;;;19.61;100.00;100688.72;3047726;19;1447;-52
2022/08/04 00:38:17;;;;;;;;;;;;;;;19.59;100.00;100683.44;3046870;19;996;-52
2022/08/04 00:39:21;;;;;;;;;;;;;;;19.57;100.00;100682.72;3049718;19;1001;-53
2022/08/04 00:40:27;;;;;;;;;;;;;;;19.56;100.00;100677.50;3050425;19;1072;-51
2022/08/04 00:41:34;;;;;;;;;;;;;;;19.54;100.00;100683.03;3049811;19;1649;-51
2022/08/04 00:43:01;;;;;;;;;;;;;;;19.53;100.00;100684.03;3053590;19;1236;-53
2022/08/04 00:44:16;;;;;;;;;;;;;;;19.51;100.00;100686.03;3055855;19;1212;-50
2022/08/04 00:45:27;;;;;;;;;;;;;;;19.52;100.00;100682.34;3056431;19;1526;-51
2022/08/04 00:46:48;;;;;;;;;;;;;;;19.50;100.00;100684.34;3056669;19;1079;-51
2022/08/04 00:48:11;;;;;;;;;;;;;;;19.48;100.00;100680.88;3055773;19;1862;-50
2022/08/04 00:49:16;;;;;;;;;;;;;;;19.47;100.00;100681.88;3055571;19;1012;-52
2022/08/04 00:50:22;;;;;;;;;;;;;;;19.45;100.00;100686.56;3055452;19;1011;-52
2022/08/04 00:51:27;;;;;;;;;;;;;;;19.44;100.00;100679.50;3055780;19;995;-51
2022/08/04 00:52:47;;;;;;;;;;;;;;;19.43;100.00;100684.03;3055511;19;961;-53
2022/08/04 00:54:14;;;;;;;;;;;;;;;19.42;100.00;100681.47;3056464;19;1074;-52
2022/08/04 00:55:16;;;;;;;;;;;;;;;19.42;100.00;100678.78;3054660;19;1505;-53
2022/08/04 00:56:32;;;;;;;;;;;;;;;19.41;100.00;100679.78;3056666;19;1043;-50
2022/08/04 00:58:02;;;;;;;;;;;;;;;19.39;100.00;100671.78;3053986;19;1002;-51
2022/08/04 00:59:39;;;;;;;;;;;;;;;19.36;100.00;100676.63;3046019;19;1156;-50
2022/08/04 01:00:49;;;;;;;;;;;;;;;19.35;100.00;100674.94;3045535;19;1077;-52
2022/08/04 01:02:00;;;;;;;;;;;;;;;19.34;100.00;100681.34;3050525;19;1149;-51
2022/08/04 01:03:13;;;;;;;;;;;;;;;19.32;100.00;100677.94;3051106;19;1040;-53
2022/08/04 01:04:21;;;;;;;;;;;;;;;19.30;100.00;100677.25;3050954;19;908;-52
2022/08/04 01:05:58;;;;;;;;;;;;;;;19.29;100.00;100675.53;3053923;19;940;-51
2022/08/04 01:07:04;;;;;;;;;;;;;;;19.25;100.00;100676.81;3054117;19;1206;-53
2022/08/04 01:08:13;;;;;;;;;;;;;;;19.26;100.00;100675.81;3054778;19;1851;-52
2022/08/04 01:09:38;;;;;;;;;;;;;;;19.24;100.00;100677.81;3056326;19;945;-52
2022/08/04 01:11:00;;;;;;;;;;;;;;;19.26;100.00;100686.63;3054120;19;1445;-50
2022/08/04 01:12:14;;;;;;;;;;;;;;;19.25;100.00;100684.94;3055480;19;1006;-51
2022/08/04 01:13:22;;;;;;;;;;;;;;;19.22;100.00;100685.22;3056474;19;994;-53
2022/08/04 01:14:42;;;;;;;;;;;;;;;19.21;100.00;100689.75;3056917;19;968;-51
2022/08/04 01:16:00;;;;;;;;;;;;;;;19.21;100.00;100694.31;3056659;19;1261;-50
2022/08/04 01:17:23;;;;;;;;;;;;;;;19.19;100.00;100677.41;3055463;19;1075;-53
2022/08/04 01:18:34;;;;;;;;;;;;;;;19.17;100.00;100687.50;3055695;19;1147;-50
2022/08/04 01:20:04;;;;;;;;;;;;;;;19.15;100.00;100686.81;3055463;19;974;-52
2022/08/04 01:21:08;;;;;;;;;;;;;;;19.15;100.00;100692.22;3047777;19;982;-53
2022/08/04 01:22:20;;;;;;;;;;;;;;;19.14;100.00;100687.78;3047737;19;986;-52
2022/08/04 01:23:45;;;;;;;;;;;;;;;19.13;100.00;100692.34;3048542;19;988;-52
2022/08/04 01:24:55;;;;;;;;;;;;;;;19.14;100.00;100698.63;3049436;19;1547;-53
2022/08/04 01:26:18;;;;;;;;;;;;;;;19.13;100.00;100694.19;3051144;19;1024;-51
2022/08/04 01:28:01;;;;;;;;;;;;;;;19.04;100.00;100675.16;3053161;19;956;-52
2022/08/04 01:29:08;;;;;;;;;;;;;;;19.14;100.00;100688.66;3055352;19;1856;-52
2022/08/04 01:30:13;;;;;;;;;;;;;;;19.15;100.00;100686.81;3055431;19;914;-52
2022/08/04 01:31:18;;;;;;;;;;;;;;;19.16;100.00;100689.38;3055684;19;916;-50
2022/08/04 01:32:25;;;;;;;;;;;;;;;19.13;100.00;100683.38;3055245;19;1255;-51
2022/08/04 01:33:27;;;;;;;;;;;;;;;19.18;100.00;100691.94;3055801;19;1249;-51
2022/08/04 01:34:43;;;;;;;;;;;;;;;19.19;100.00;100690.94;3055396;19;974;-52
2022/08/04 01:35:55;;;;;;;;;;;;;;;19.17;100.00;100687.50;3053494;19;1040;-53
2022/08/04 01:37:12;;;;;;;;;;;;;;;19.19;100.00;100690.94;3056448;19;960;-51
2022/08/04 01:38:26;;;;;;;;;;;;;;;19.20;100.00;100695.34;3056615;19;916;-52
2022/08/04 01:39:51;;;;;;;;;;;;;;;19.22;100.00;100693.31;3055395;19;1003;-52
2022/08/04 01:40:54;;;;;;;;;;;;;;;19.22;100.00;100690.63;3056289;19;976;-51
2022/08/04 01:41:59;;;;;;;;;;;;;;;19.25;100.00;100695.75;3054009;19;1031;-51
2022/08/04 01:43:04;;;;;;;;;;;;;;;19.26;100.00;100690.19;3049456;19;1075;-51
2022/08/04 01:44:06;;;;;;;;;;;;;;;19.27;100.00;100693.75;3046034;19;1453;-51
2022/08/04 01:45:11;;;;;;;;;;;;;;;19.28;100.00;100695.47;3045976;19;1201;-52
2022/08/04 01:46:14;;;;;;;;;;;;;;;19.27;100.00;100693.75;3047564;19;1249;-50
2022/08/04 01:47:19;;;;;;;;;;;;;;;19.27;100.00;100700.03;3050738;19;1362;-52
2022/08/04 01:48:22;;;;;;;;;;;;;;;19.27;100.00;100685.63;3049238;19;988;-51
2022/08/04 01:49:30;;;;;;;;;;;;;;;19.28;100.00;100693.63;3048949;19;1864;-51
2022/08/04 01:50:43;;;;;;;;;;;;;;;19.28;100.00;100690.06;3055412;19;988;-52
2022/08/04 01:51:45;;;;;;;;;;;;;;;19.28;100.00;100690.06;3055415;19;1328;-51
2022/08/04 01:52:50;;;;;;;;;;;;;;;19.27;100.00;100693.75;3054738;19;1021;-51
2022/08/04 01:53:52;;;;;;;;;;;;;;;19.28;100.00;100690.06;3055370;19;967;-53
2022/08/04 01:54:56;;;;;;;;;;;;;;;19.27;100.00;100693.75;3055288;19;945;-52
2022/08/04 01:55:58;;;;;;;;;;;;;;;19.26;100.00;100692.91;3054407;19;1185;-53
2022/08/04 01:57:02;;;;;;;;;;;;;;;19.26;100.00;100697.47;3055162;19;937;-51
2022/08/04 01:58:27;;;;;;;;;;;;;;;19.24;100.00;100694.91;3055383;19;906;-51
2022/08/04 01:59:29;;;;;;;;;;;;;;;19.27;100.00;100693.75;3055314;19;1385;-52
2022/08/04 02:00:34;;;;;;;;;;;;;;;19.28;100.00;100695.47;3054723;19;1152;-51
2022/08/04 02:01:36;;;;;;;;;;;;;;;19.27;100.00;100693.75;3055415;19;957;-51
2022/08/04 02:02:41;;;;;;;;;;;;;;;19.26;100.00;100697.47;3055654;19;996;-50
2022/08/04 02:03:44;;;;;;;;;;;;;;;19.27;100.00;100693.75;3056579;19;1145;-51
2022/08/04 02:05:13;;;;;;;;;;;;;;;19.25;100.00;100696.59;3052134;19;1064;-53
2022/08/04 02:06:21;;;;;;;;;;;;;;;19.23;100.00;100681.50;3047765;19;1491;-52
2022/08/04 02:07:26;;;;;;;;;;;;;;;19.22;100.00;100680.66;3046007;19;1226;-51
2022/08/04 02:08:31;;;;;;;;;;;;;;;19.20;100.00;100688.06;3047127;19;1186;-52
2022/08/04 02:09:40;;;;;;;;;;;;;;;19.18;100.00;100690.06;3048848;19;1873;-51
2022/08/04 02:10:58;;;;;;;;;;;;;;;19.16;100.00;100685.81;3049770;19;1139;-54
2022/08/04 02:12:07;;;;;;;;;;;;;;;19.14;100.00;100682.38;3050272;19;1087;-51
2022/08/04 02:13:40;;;;;;;;;;;;;;;19.10;100.00;100680.97;3054103;19;1130;-53
2022/08/04 02:14:49;;;;;;;;;;;;;;;19.06;100.00;100675.84;3055222;19;893;-52
2022/08/04 02:16:01;;;;;;;;;;;;;;;19.05;100.00;100682.25;3055619;19;961;-52
2022/08/04 02:17:03;;;;;;;;;;;;;;;19.02;100.00;100678.97;3054300;19;909;-51
2022/08/04 02:18:10;;;;;;;;;;;;;;;19.01;100.00;100688.09;3054924;19;1171;-51
2022/08/04 02:19:14;;;;;;;;;;;;;;;19.01;100.00;100675.44;3054537;19;990;-52
2022/08/04 02:20:26;;;;;;;;;;;;;;;18.98;100.00;100683.81;3054885;19;977;-52
2022/08/04 02:21:29;;;;;;;;;;;;;;;18.94;100.00;100671.59;3055278;19;939;-50
2022/08/04 02:22:49;;;;;;;;;;;;;;;18.91;100.00;100671.03;3054523;19;965;-52
2022/08/04 02:23:55;;;;;;;;;;;;;;;18.89;100.00;100668.47;3055018;19;993;-52
2022/08/04 02:25:01;;;;;;;;;;;;;;;18.87;100.00;100669.59;3055045;19;1315;-52
2022/08/04 02:26:06;;;;;;;;;;;;;;;18.85;100.00;100667.03;3054108;19;1645;-52
2022/08/04 02:27:22;;;;;;;;;;;;;;;18.81;100.00;100664.78;3054824;19;1017;-52
2022/08/04 02:28:26;;;;;;;;;;;;;;;18.79;100.00;100662.22;3047154;19;1216;-50
2022/08/04 02:29:31;;;;;;;;;;;;;;;18.76;100.00;100667.88;3045199;19;1846;-51
2022/08/04 02:30:36;;;;;;;;;;;;;;;18.73;100.00;100667.31;3045966;19;949;-52
2022/08/04 02:31:39;;;;;;;;;;;;;;;18.70;100.00;100665.78;3048839;19;952;-52
2022/08/04 02:32:43;;;;;;;;;;;;;;;18.67;100.00;100663.34;3049185;19;1020;-51
2022/08/04 02:33:48;;;;;;;;;;;;;;;18.65;100.00;100671.59;3049085;19;984;-51
2022/08/04 02:34:54;;;;;;;;;;;;;;;18.63;100.00;100656.50;3049585;19;976;-52
2022/08/04 02:35:59;;;;;;;;;;;;;;;18.62;100.00;100665.59;3054015;19;975;-52
2022/08/04 02:37:03;;;;;;;;;;;;;;;18.59;100.00;100665.91;3054267;19;1086;-52
2022/08/04 02:38:20;;;;;;;;;;;;;;;18.57;100.00;100663.31;3054151;19;1050;-52
2022/08/04 02:39:31;;;;;;;;;;;;;;;18.54;100.00;100662.75;3054709;19;1110;-51
2022/08/04 02:42:11;;;;;;;;;;;;;;;18.47;100.00;100653.50;3056781;19;1551;-51
2022/08/04 02:43:12;;;;;;;;;;;;;;;18.44;100.00;100657.31;3055445;19;1043;-53
2022/08/04 02:44:21;;;;;;;;;;;;;;;18.34;100.00;100643.81;3057697;19;1082;-52
2022/08/04 02:45:24;;;;;;;;;;;;;;;18.38;100.00;100654.31;3057247;19;1082;-52
2022/08/04 02:46:32;;;;;;;;;;;;;;;18.33;100.00;100650.22;3055812;19;1100;-53
2022/08/04 02:47:34;;;;;;;;;;;;;;;18.32;100.00;100658.44;3057325;19;928;-52
2022/08/04 02:48:58;;;;;;;;;;;;;;;18.28;100.00;100663.28;3058102;19;879;-52
2022/08/04 02:50:00;;;;;;;;;;;;;;;18.14;100.00;100633.94;3057482;19;1851;-51
2022/08/04 02:51:05;;;;;;;;;;;;;;;18.24;100.00;100664.53;3056790;19;1227;-52
2022/08/04 02:52:09;;;;;;;;;;;;;;;18.22;100.00;100652.19;3057488;19;893;-51
2022/08/04 02:53:12;;;;;;;;;;;;;;;18.18;100.00;100648.91;3056874;19;861;-51
2022/08/04 02:54:17;;;;;;;;;;;;;;;18.17;100.00;100654.44;3057022;19;1210;-53
2022/08/04 02:55:34;;;;;;;;;;;;;;;18.14;100.00;100655.56;3057287;19;1018;-51
2022/08/04 02:56:39;;;;;;;;;;;;;;;18.14;100.00;100643.91;3056835;19;988;-51
2022/08/04 02:57:41;;;;;;;;;;;;;;;18.13;100.00;100653.00;3056814;19;972;-52
2022/08/04 02:58:45;;;;;;;;;;;;;;;18.12;100.00;100653.97;3057753;19;1695;-51
2022/08/04 02:59:59;;;;;;;;;;;;;;;18.11;100.00;100649.59;3056898;19;976;-50
2022/08/04 03:01:05;;;;;;;;;;;;;;;18.10;100.00;100651.44;3053615;19;2002;-51
2022/08/04 03:02:07;;;;;;;;;;;;;;;18.10;100.00;100650.59;3055094;19;1038;-53
2022/08/04 03:03:21;;;;;;;;;;;;;;;18.02;100.00;100635.06;3054958;19;1036;-52
2022/08/04 03:04:40;;;;;;;;;;;;;;;18.12;100.00;100641.34;3055442;19;997;-51
2022/08/04 03:05:42;;;;;;;;;;;;;;;18.13;100.00;100650.28;3046391;19;1159;-51
2022/08/04 03:07:07;;;;;;;;;;;;;;;18.14;100.00;100655.56;3046626;19;1364;-52
2022/08/04 03:08:24;;;;;;;;;;;;;;;18.17;100.00;100654.44;3047549;19;1189;-53
2022/08/04 03:09:30;;;;;;;;;;;;;;;18.18;100.00;100659.69;3049128;19;1138;-53
2022/08/04 03:10:47;;;;;;;;;;;;;;;18.22;100.00;100655.75;3048476;19;1894;-52
2022/08/04 03:11:56;;;;;;;;;;;;;;;18.27;100.00;100649.91;3047987;19;1279;-52
2022/08/04 03:13:01;;;;;;;;;;;;;;;18.30;100.00;100655.88;3054898;19;1020;-51
2022/08/04 03:14:37;;;;;;;;;;;;;;;18.34;100.00;100662.72;3054600;19;1098;-51
2022/08/04 03:15:42;;;;;;;;;;;;;;;18.41;100.00;100656.75;3052762;19;1121;-53
2022/08/04 03:16:58;;;;;;;;;;;;;;;18.46;100.00;100662.59;3054089;19;1092;-52
2022/08/04 03:18:00;;;;;;;;;;;;;;;18.50;100.00;100667.56;3054141;19;922;-50
2022/08/04 03:19:07;;;;;;;;;;;;;;;18.54;100.00;100668.13;3053943;19;950;-53
2022/08/04 03:20:27;;;;;;;;;;;;;;;18.58;100.00;100672.31;3054925;19;953;-52
2022/08/04 03:21:50;;;;;;;;;;;;;;;18.62;100.00;100671.00;3053729;19;1055;-52
2022/08/04 03:23:01;;;;;;;;;;;;;;;18.65;100.00;100665.34;3054595;19;1081;-53
2022/08/04 03:24:42;;;;;;;;;;;;;;;18.70;100.00;100669.34;3054456;19;1210;-52
2022/08/04 03:26:02;;;;;;;;;;;;;;;18.73;100.00;100673.56;3054566;19;1002;-52
2022/08/04 03:27:07;;;;;;;;;;;;;;;18.76;100.00;100678.72;3054254;19;1060;-53
2022/08/04 03:28:27;;;;;;;;;;;;;;;18.79;100.00;100674.88;3046206;19;1430;-51
2022/08/04 03:29:42;;;;;;;;;;;;;;;18.81;100.00;100676.44;3046577;19;918;-51
2022/08/04 03:31:05;;;;;;;;;;;;;;;18.83;100.00;100677.16;3045071;19;1885;-52
2022/08/04 03:32:26;;;;;;;;;;;;;;;18.88;100.00;100682.13;3049039;19;987;-52
2022/08/04 03:33:49;;;;;;;;;;;;;;;18.92;100.00;100689.81;3049263;19;921;-53
2022/08/04 03:34:57;;;;;;;;;;;;;;;18.98;100.00;100689.22;3050754;19;1042;-52
2022/08/04 03:36:08;;;;;;;;;;;;;;;19.04;100.00;100694.06;3054601;19;982;-53
2022/08/04 03:37:31;;;;;;;;;;;;;;;19.12;100.00;100697.91;3054367;19;1524;-51
2022/08/04 03:38:49;;;;;;;;;;;;;;;19.19;100.00;100697.19;3053842;19;1034;-53
2022/08/04 03:40:23;;;;;;;;;;;;;;;19.28;100.00;100692.75;3054040;19;949;-51
2022/08/04 03:41:28;;;;;;;;;;;;;;;19.35;100.00;100702.00;3053138;19;1019;-51
2022/08/04 03:43:08;;;;;;;;;;;;;;;19.44;100.00;100706.56;3053702;19;1036;-52
2022/08/04 03:44:51;;;;;;;;;;;;;;;19.52;100.00;100706.69;3054629;19;1208;-53
2022/08/04 03:45:58;;;;;;;;;;;;;;;19.61;100.00;100713.94;3054332;19;964;-51
2022/08/04 03:47:06;;;;;;;;;;;;;;;19.66;100.00;100706.25;3053283;19;1188;-53
2022/08/04 03:48:20;;;;;;;;;;;;;;;19.79;100.00;100711.31;3053734;19;1126;-52
2022/08/04 03:49:48;;;;;;;;;;;;;;;20.00;100.00;100716.50;3053845;19;1219;-51
2022/08/04 03:54:02;;;;;;;;;;;;;;;20.88;100.00;100724.00;3049104;19;1382;-52
2022/08/04 03:55:15;;;;;;;;;;;;;;;20.96;100.00;100729.47;3047916;19;1084;-50
2022/08/04 03:56:17;;;;;;;;;;;;;;;20.94;100.00;100741.50;3048776;19;1522;-52
2022/08/04 03:57:41;;;;;;;;;;;;;;;20.89;100.00;100733.81;3050834;19;1082;-52
2022/08/04 03:58:43;;;;;;;;;;;;;;;20.87;100.00;100745.84;3052107;19;970;-51
2022/08/04 03:59:59;;;;;;;;;;;;;;;21.01;100.00;100743.41;3053748;19;1752;-53
2022/08/04 04:01:04;;;;;;;;;;;;;;;21.50;100.00;100752.00;3054777;19;1193;-51
2022/08/04 04:02:17;;;;;;;;;;;;;;;22.06;100.00;100753.44;3054426;19;1158;-52
2022/08/04 04:03:22;;;;;;;;;;;;;;;22.66;100.00;100765.06;3053284;19;1082;-53
2022/08/04 04:04:50;;;;;;;;;;;;;;;23.22;100.00;100777.94;3053691;19;1181;-52
2022/08/04 04:06:03;;;;;;;;;;;;;;;23.77;100.00;100782.72;3054091;19;1212;-52
2022/08/04 04:07:26;;;;;;;;;;;;;;;24.02;100.00;100786.25;3054509;19;1236;-53
2022/08/04 04:09:02;;;;;;;;;;;;;;;24.39;100.00;100800.13;3054262;19;897;-52
2022/08/04 04:10:06;;;;;;;;;;;;;;;25.01;100.00;100799.34;3054110;19;1118;-52
2022/08/04 04:11:29;;;;;;;;;;;;;;;25.45;100.00;100794.06;3053974;19;1844;-54
2022/08/04 04:12:31;;;;;;;;;;;;;;;26.03;100.00;100807.06;3049375;19;1016;-53
2022/08/04 04:13:51;;;;;;;;;;;;;;;26.42;100.00;100806.81;3045749;19;948;-51
2022/08/04 04:14:58;;;;;;;;;;;;;;;26.83;100.00;100812.59;3045667;19;1020;-53
2022/08/04 04:16:09;;;;;;;;;;;;;;;27.17;100.00;100816.63;3047388;19;1450;-52
2022/08/04 04:17:14;;;;;;;;;;;;;;;27.48;100.00;100816.28;3048739;19;1018;-54
2022/08/04 04:18:31;;;;;;;;;;;;;;;27.74;100.00;100821.19;3049067;19;984;-51
2022/08/04 04:19:33;;;;;;;;;;;;;;;28.14;100.00;100825.91;3049815;19;936;-52
2022/08/04 04:20:37;;;;;;;;;;;;;;;28.48;97.99;100827.88;3052261;19;1710;-52
2022/08/04 04:21:57;;;;;;;;;;;;;;;28.80;95.54;100815.38;3054229;19;999;-51
2022/08/04 04:23:08;;;;;;;;;;;;;;;29.17;92.44;100826.91;3054129;19;925;-51
2022/08/04 04:24:14;;;;;;;;;;;;;;;29.48;90.51;100835.44;3053050;19;1158;-51
2022/08/04 04:25:27;;;;;;;;;;;;;;;29.73;88.42;100828.28;3053248;19;908;-53
2022/08/04 04:26:29;;;;;;;;;;;;;;;30.02;86.77;100832.53;3054200;19;1203;-52
2022/08/04 04:27:49;;;;;;;;;;;;;;;30.24;84.41;100835.91;3053901;19;1079;-53
2022/08/04 04:28:57;;;;;;;;;;;;;;;30.52;82.72;100834.78;3053398;19;1162;-52
2022/08/04 04:30:06;;;;;;;;;;;;;;;30.81;80.18;100842.53;3054065;19;968;-55
2022/08/04 04:31:14;;;;;;;;;;;;;;;31.03;79.63;100840.34;3053412;19;1837;-54
2022/08/04 04:32:24;;;;;;;;;;;;;;;31.29;79.19;100836.59;3053880;19;1024;-53
2022/08/04 04:33:45;;;;;;;;;;;;;;;31.51;77.14;100843.47;3053874;19;1230;-53
2022/08/04 04:34:49;;;;;;;;;;;;;;;31.78;75.81;100844.97;3051889;19;1125;-54
2022/08/04 04:35:54;;;;;;;;;;;;;;;31.98;74.53;100843.97;3046009;19;1217;-53
2022/08/04 04:36:58;;;;;;;;;;;;;;;32.13;73.32;100847.22;3044579;19;1470;-54
2022/08/04 04:38:16;;;;;;;;;;;;;;;32.30;72.75;100850.28;3045814;19;1071;-54
2022/08/04 04:39:39;;;;;;;;;;;;;;;32.51;71.42;100850.69;3047819;19;944;-53
2022/08/04 04:40:47;;;;;;;;;;;;;;;32.73;69.84;100853.00;3049097;19;1013;-54
2022/08/04 04:42:09;;;;;;;;;;;;;;;32.91;68.97;100847.47;3047062;19;1521;-54
2022/08/04 04:43:23;;;;;;;;;;;;;;;33.07;68.25;100852.38;3052470;19;970;-52
2022/08/04 04:44:50;;;;;;;;;;;;;;;33.24;66.55;100847.91;3052096;19;1716;-51
2022/08/04 04:46:13;;;;;;;;;;;;;;;33.37;65.49;100854.31;3051600;19;1466;-56
2022/08/04 04:47:30;;;;;;;;;;;;;;;33.51;64.37;100840.06;3053939;19;1002;-53
2022/08/04 04:49:03;;;;;;;;;;;;;;;33.68;64.00;100853.22;3053208;19;1369;-53
2022/08/04 04:50:28;;;;;;;;;;;;;;;33.79;62.90;100856.03;3051817;19;1521;-54
2022/08/04 04:51:48;;;;;;;;;;;;;;;33.89;62.97;100853.53;3053035;19;1842;-54
2022/08/04 04:52:58;;;;;;;;;;;;;;;33.87;62.20;100855.69;3053594;19;992;-52
2022/08/04 04:54:21;;;;;;;;;;;;;;;33.87;61.98;100861.22;3053215;19;1217;-52
2022/08/04 04:55:30;;;;;;;;;;;;;;;33.88;62.17;100860.16;3052592;19;964;-51
2022/08/04 04:56:46;;;;;;;;;;;;;;;33.90;61.67;100860.75;3052644;19;1401;-54
2022/08/04 04:57:49;;;;;;;;;;;;;;;33.88;61.62;100859.28;3044550;19;981;-51
2022/08/04 04:58:58;;;;;;;;;;;;;;;33.79;61.74;100864.34;3044466;19;1032;-52
2022/08/04 05:00:06;;;;;;;;;;;;;;;33.58;62.50;100851.00;3042721;19;1346;-53
2022/08/04 05:01:23;;;;;;;;;;;;;;;33.49;63.63;100855.19;3045566;19;1560;-52
2022/08/04 05:02:28;;;;;;;;;;;;;;;33.25;63.71;100862.56;3046623;19;1328;-53
2022/08/04 05:03:35;;;;;;;;;;;;;;;33.03;64.84;100861.38;3042276;19;1600;-54
2022/08/04 05:04:40;;;;;;;;;;;;;;;32.35;67.39;100861.50;3041965;19;1616;-54
2022/08/04 05:05:45;;;;;;;;;;;;;;;31.32;70.45;100855.47;3045149;19;1469;-53
2022/08/04 05:06:59;;;;;;;;;;;;;;;30.54;74.25;100846.47;3044580;19;1437;-55
2022/08/04 05:08:09;;;;;;;;;;;;;;;29.90;77.75;100847.13;3052010;19;1213;-52
2022/08/04 05:09:36;;;;;;;;;;;;;;;29.30;81.19;100837.94;3051692;19;1700;-53
2022/08/04 05:10:38;;;;;;;;;;;;;;;28.90;83.20;100848.81;3054379;19;1124;-54
2022/08/04 05:12:02;;;;;;;;;;;;;;;28.58;85.24;100843.97;3055513;19;1857;-52
2022/08/04 05:13:34;;;;;;;;;;;;;;;28.12;88.60;100847.25;3055540;19;1022;-51
2022/08/04 05:14:59;;;;;;;;;;;;;;;27.74;91.63;100840.41;3055946;19;949;-55
2022/08/04 05:16:09;;;;;;;;;;;;;;;27.48;93.55;100836.31;3051677;19;1824;-53
2022/08/04 05:17:35;;;;;;;;;;;;;;;27.23;95.76;100840.50;3052047;19;1556;-53
2022/08/04 05:18:39;;;;;;;;;;;;;;;26.95;98.15;100837.63;3052047;19;1732;-53
2022/08/04 05:19:55;;;;;;;;;;;;;;;26.75;99.59;100837.38;3050419;19;1449;-53
2022/08/04 05:21:05;;;;;;;;;;;;;;;26.56;100.00;100839.84;3044577;19;1659;-52
2022/08/04 05:22:09;;;;;;;;;;;;;;;26.39;100.00;100840.03;3046210;19;1354;-53
2022/08/04 05:23:19;;;;;;;;;;;;;;;26.24;100.00;100828.19;3046075;19;1424;-52
2022/08/04 05:24:21;;;;;;;;;;;;;;;26.10;100.00;100838.09;3048258;19;1297;-55
2022/08/04 05:25:27;;;;;;;;;;;;;;;26.01;100.00;100821.94;3048555;19;920;-52
2022/08/04 05:26:30;;;;;;;;;;;;;;;25.90;100.00;100834.19;3048898;19;997;-52
2022/08/04 05:27:48;;;;;;;;;;;;;;;25.84;100.00;100829.47;3053440;19;1338;-52
2022/08/04 05:28:53;;;;;;;;;;;;;;;25.71;100.00;100835.56;3055417;19;1687;-52
2022/08/04 05:29:59;;;;;;;;;;;;;;;25.64;100.00;100818.19;3052327;19;1610;-52
2022/08/04 05:31:17;;;;;;;;;;;;;;;25.57;100.00;100819.94;3053784;19;1518;-51
2022/08/04 05:32:24;;;;;;;;;;;;;;;25.52;100.00;100825.09;3053102;19;1858;-53
2022/08/04 05:33:28;;;;;;;;;;;;;;;25.48;100.00;100827.34;3054839;19;771;-53
2022/08/04 05:34:33;;;;;;;;;;;;;;;25.45;100.00;100825.00;3054240;19;2040;-51
2022/08/04 05:35:39;;;;;;;;;;;;;;;25.44;100.00;100822.44;3053539;19;1231;-52
2022/08/04 05:37:02;;;;;;;;;;;;;;;25.39;100.00;100825.69;3053692;19;1081;-52
2022/08/04 05:38:07;;;;;;;;;;;;;;;25.39;100.00;100820.25;3053260;19;1689;-51
2022/08/04 05:39:11;;;;;;;;;;;;;;;25.40;100.00;100834.75;3054003;19;1749;-54
2022/08/04 05:40:17;;;;;;;;;;;;;;;25.38;100.00;100818.53;3053823;19;1234;-52
2022/08/04 05:41:20;;;;;;;;;;;;;;;25.32;100.00;100810.22;3053610;19;1625;-52
2022/08/04 05:42:24;;;;;;;;;;;;;;;25.40;100.00;100829.28;3048881;19;1564;-53
2022/08/04 05:43:26;;;;;;;;;;;;;;;25.39;100.00;100825.69;3046131;19;999;-53
2022/08/04 05:44:31;;;;;;;;;;;;;;;25.42;100.00;100830.81;3045850;19;1844;-53
2022/08/04 05:45:33;;;;;;;;;;;;;;;25.46;100.00;100829.44;3047118;19;1466;-54
2022/08/04 05:46:42;;;;;;;;;;;;;;;25.46;100.00;100840.34;3046780;19;1512;-52
2022/08/04 05:47:46;;;;;;;;;;;;;;;25.48;100.00;100823.75;3044858;19;1815;-54
2022/08/04 05:48:51;;;;;;;;;;;;;;;25.49;100.00;100836.38;3048575;19;1384;-53
2022/08/04 05:49:55;;;;;;;;;;;;;;;25.50;100.00;100832.63;3052984;19;953;-53
2022/08/04 05:51:03;;;;;;;;;;;;;;;25.47;100.00;100838.47;3053437;19;1524;-53
2022/08/04 05:52:08;;;;;;;;;;;;;;;25.48;100.00;100824.59;3052998;19;1843;-55
2022/08/04 05:53:10;;;;;;;;;;;;;;;25.52;100.00;100835.19;3052616;19;1581;-56
2022/08/04 05:54:14;;;;;;;;;;;;;;;25.55;100.00;100829.34;3053531;19;1691;-53
2022/08/04 05:55:16;;;;;;;;;;;;;;;25.57;100.00;100838.22;3054099;19;1052;-53
2022/08/04 05:56:41;;;;;;;;;;;;;;;25.60;100.00;100843.34;3053146;19;1801;-54
2022/08/04 05:57:47;;;;;;;;;;;;;;;25.62;100.00;100830.34;3053107;19;1380;-53
2022/08/04 05:58:54;;;;;;;;;;;;;;;25.64;100.00;100845.53;3053283;19;1619;-52
2022/08/04 05:59:59;;;;;;;;;;;;;;;25.66;100.00;100839.88;3054937;19;1070;-53
2022/08/04 06:01:01;;;;;;;;;;;;;;;25.68;100.00;100846.88;3053108;19;1686;-54
2022/08/04 06:02:06;;;;;;;;;;;;;;;25.71;100.00;100834.72;3053461;19;1022;-53
2022/08/04 06:03:08;;;;;;;;;;;;;;;25.72;100.00;100847.38;3053297;19;1048;-52
2022/08/04 06:04:13;;;;;;;;;;;;;;;25.76;100.00;100844.06;3053072;19;1815;-53
2022/08/04 06:05:15;;;;;;;;;;;;;;;25.75;100.00;100846.97;3046052;19;1027;-52
2022/08/04 06:06:19;;;;;;;;;;;;;;;25.79;100.00;100842.84;3045358;19;1058;-53
2022/08/04 06:07:21;;;;;;;;;;;;;;;25.80;100.00;100850.88;3045519;19;1844;-53
2022/08/04 06:08:28;;;;;;;;;;;;;;;25.83;100.00;100842.31;3047267;19;1127;-53
2022/08/04 06:09:30;;;;;;;;;;;;;;;25.84;100.00;100845.88;3047911;19;1798;-54
2022/08/04 06:10:34;;;;;;;;;;;;;;;25.90;100.00;100847.88;3048899;19;1197;-53